Charlton — S6HE4 — position and weather

sailwx.info

Track history (hours):
 
Tides and Currents Weather Stations Pressure Air Temp Water Temp Dewpoint Dewpoint Depression Visibility Wind Speed Wind Dir Waves Ship Positions

Charlton

Last reported at 2017-Oct-20 10:18 UTC. Time now 2017-Oct-20 16:28 UTC.
Position N 22°31' E 120°07'.

Length 120 m; draft 5.3 m.

Type: Ship (hazmat cat A). MMSI: 565321000.

Date/timePositionNaut miles runAvg speedWind from/ knotsBaromVisibWave heightAir tempDewpointWater temp
2017-Oct-20 10:18N 22°31' E 120°07'415.0
2017-Oct-20 10:00N 22°35' E 120°10'3 6.0
2017-Oct-20 09:30N 22°35' E 120°13'0 0.0
2017-Oct-20 08:51N 22°35' E 120°13'0 0.8
2017-Oct-20 08:30N 22°36' E 120°13'3 6.0
2017-Oct-20 08:00N 22°37' E 120°16'3 0.1
2017-Oct-19 02:23N 22°35' E 120°18'0 0.0
2017-Oct-19 02:01N 22°35' E 120°18'2 3.6
2017-Oct-19 01:31N 22°37' E 120°17'1 1.0
2017-Oct-19 00:54N 22°36' E 120°18'0 0.0
2017-Oct-18 10:06N 22°36' E 120°18'1 4.5
2017-Oct-18 09:57N 22°37' E 120°17'2 0.0
2017-Oct-16 19:47N 22°35' E 120°18'0 1.5
2017-Oct-16 19:28N 22°35' E 120°18'3 6.3
2017-Oct-16 19:01N 22°37' E 120°15'4 8.3
2017-Oct-16 18:30N 22°38' E 120°10'611.1
2017-Oct-16 18:00N 22°38' E 120°05'5 9.6
2017-Oct-16 17:30N 22°37' E 119°60'611.9
2017-Oct-16 16:59N 22°31' E 119°57'  
Track history (hours):
 
Tides and Currents Weather Stations Pressure Air Temp Water Temp Dewpoint Dewpoint Depression Visibility Wind Speed Wind Dir Waves Ship Positions

Charlton

Last reported at 2017-Oct-20 10:18 UTC. Time now 2017-Oct-20 16:28 UTC.
Position N 22°31' E 120°07'.

Length 120 m; draft 5.3 m.

Type: Ship (hazmat cat A). MMSI: 565321000.

Date/timePositionNaut miles runAvg speedWind from/ knotsBaromVisibWave heightAir tempDewpointWater temp
2017-Oct-20 10:18N 22°31' E 120°07'415.0
2017-Oct-20 10:00N 22°35' E 120°10'3 6.0
2017-Oct-20 09:30N 22°35' E 120°13'0 0.0
2017-Oct-20 08:51N 22°35' E 120°13'0 0.8
2017-Oct-20 08:30N 22°36' E 120°13'3 6.0
2017-Oct-20 08:00N 22°37' E 120°16'3 0.1
2017-Oct-19 02:23N 22°35' E 120°18'0 0.0
2017-Oct-19 02:01N 22°35' E 120°18'2 3.6
2017-Oct-19 01:31N 22°37' E 120°17'1 1.0
2017-Oct-19 00:54N 22°36' E 120°18'0 0.0
2017-Oct-18 10:06N 22°36' E 120°18'1 4.5
2017-Oct-18 09:57N 22°37' E 120°17'2 0.0
2017-Oct-16 19:47N 22°35' E 120°18'0 1.5
2017-Oct-16 19:28N 22°35' E 120°18'3 6.3
2017-Oct-16 19:01N 22°37' E 120°15'4 8.3
2017-Oct-16 18:30N 22°38' E 120°10'611.1
2017-Oct-16 18:00N 22°38' E 120°05'5 9.6
2017-Oct-16 17:30N 22°37' E 119°60'611.9
2017-Oct-16 16:59N 22°31' E 119°57'  

Dump ship's entire track history